sensor_id;sensor_type;location;lat;lon;timestamp;P1;durP1;ratioP1;P2;durP2;ratioP2
11338;SDS011;5724;42.684;23.252;2023-09-19T00:01:40;5.50;;;5.20;;
11338;SDS011;5724;42.684;23.252;2023-09-19T00:04:07;6.07;;;5.68;;
11338;SDS011;5724;42.684;23.252;2023-09-19T00:06:35;6.10;;;5.70;;
11338;SDS011;5724;42.684;23.252;2023-09-19T00:09:01;5.40;;;5.10;;
11338;SDS011;5724;42.684;23.252;2023-09-19T00:11:27;6.60;;;5.10;;
11338;SDS011;5724;42.684;23.252;2023-09-19T00:13:54;6.05;;;5.60;;
11338;SDS011;5724;42.684;23.252;2023-09-19T00:16:19;6.05;;;5.47;;
11338;SDS011;5724;42.684;23.252;2023-09-19T00:18:46;5.82;;;5.50;;
11338;SDS011;5724;42.684;23.252;2023-09-19T00:21:11;7.28;;;5.25;;
11338;SDS011;5724;42.684;23.252;2023-09-19T00:23:37;5.65;;;5.35;;
11338;SDS011;5724;42.684;23.252;2023-09-19T00:26:03;5.72;;;5.43;;
11338;SDS011;5724;42.684;23.252;2023-09-19T00:28:29;6.00;;;5.63;;
11338;SDS011;5724;42.684;23.252;2023-09-19T00:30:55;5.95;;;5.50;;
11338;SDS011;5724;42.684;23.252;2023-09-19T00:33:21;6.35;;;5.82;;
11338;SDS011;5724;42.684;23.252;2023-09-19T00:35:53;5.70;;;5.38;;
11338;SDS011;5724;42.684;23.252;2023-09-19T00:38:20;5.68;;;5.35;;
11338;SDS011;5724;42.684;23.252;2023-09-19T00:40:48;5.63;;;5.35;;
11338;SDS011;5724;42.684;23.252;2023-09-19T00:43:14;5.22;;;4.78;;
11338;SDS011;5724;42.684;23.252;2023-09-19T00:45:42;5.80;;;5.50;;
11338;SDS011;5724;42.684;23.252;2023-09-19T00:48:08;6.60;;;6.05;;
11338;SDS011;5724;42.684;23.252;2023-09-19T00:50:35;6.93;;;6.25;;
11338;SDS011;5724;42.684;23.252;2023-09-19T00:53:01;7.55;;;6.95;;
11338;SDS011;5724;42.684;23.252;2023-09-19T00:55:38;7.45;;;6.75;;
11338;SDS011;5724;42.684;23.252;2023-09-19T00:58:05;7.15;;;6.72;;
11338;SDS011;5724;42.684;23.252;2023-09-19T01:00:32;6.65;;;6.03;;
11338;SDS011;5724;42.684;23.252;2023-09-19T01:02:59;6.97;;;6.38;;
11338;SDS011;5724;42.684;23.252;2023-09-19T01:05:28;6.45;;;6.05;;
11338;SDS011;5724;42.684;23.252;2023-09-19T01:07:57;7.75;;;6.97;;
11338;SDS011;5724;42.684;23.252;2023-09-19T01:10:22;7.28;;;6.28;;
11338;SDS011;5724;42.684;23.252;2023-09-19T01:18:02;6.35;;;6.05;;
11338;SDS011;5724;42.684;23.252;2023-09-19T01:31:59;6.70;;;6.13;;
11338;SDS011;5724;42.684;23.252;2023-09-19T01:34:42;7.22;;;6.53;;
11338;SDS011;5724;42.684;23.252;2023-09-19T01:37:16;6.63;;;6.22;;
11338;SDS011;5724;42.684;23.252;2023-09-19T01:39:49;8.32;;;6.50;;
11338;SDS011;5724;42.684;23.252;2023-09-19T01:47:39;6.65;;;6.25;;
11338;SDS011;5724;42.684;23.252;2023-09-19T01:53:02;6.22;;;5.93;;
11338;SDS011;5724;42.684;23.252;2023-09-19T01:55:30;6.60;;;6.20;;
11338;SDS011;5724;42.684;23.252;2023-09-19T01:58:08;7.20;;;6.18;;
11338;SDS011;5724;42.684;23.252;2023-09-19T02:00:42;6.68;;;6.18;;
11338;SDS011;5724;42.684;23.252;2023-09-19T02:03:10;7.05;;;6.57;;
11338;SDS011;5724;42.684;23.252;2023-09-19T02:05:37;6.25;;;5.88;;
11338;SDS011;5724;42.684;23.252;2023-09-19T02:08:04;6.80;;;6.30;;
11338;SDS011;5724;42.684;23.252;2023-09-19T02:10:30;7.30;;;6.30;;
11338;SDS011;5724;42.684;23.252;2023-09-19T02:12:56;6.88;;;6.35;;
11338;SDS011;5724;42.684;23.252;2023-09-19T02:15:21;7.90;;;6.13;;
11338;SDS011;5724;42.684;23.252;2023-09-19T02:17:47;6.80;;;6.28;;
11338;SDS011;5724;42.684;23.252;2023-09-19T02:20:12;6.93;;;6.45;;
11338;SDS011;5724;42.684;23.252;2023-09-19T02:22:40;6.90;;;6.40;;
11338;SDS011;5724;42.684;23.252;2023-09-19T02:25:07;6.85;;;6.40;;
11338;SDS011;5724;42.684;23.252;2023-09-19T02:27:33;6.65;;;5.97;;
11338;SDS011;5724;42.684;23.252;2023-09-19T02:29:59;6.60;;;6.00;;
11338;SDS011;5724;42.684;23.252;2023-09-19T02:32:27;7.90;;;7.18;;
11338;SDS011;5724;42.684;23.252;2023-09-19T02:34:55;8.27;;;6.15;;
11338;SDS011;5724;42.684;23.252;2023-09-19T02:37:20;6.55;;;6.15;;
11338;SDS011;5724;42.684;23.252;2023-09-19T02:39:46;7.32;;;6.80;;
11338;SDS011;5724;42.684;23.252;2023-09-19T02:42:11;6.82;;;6.43;;
11338;SDS011;5724;42.684;23.252;2023-09-19T02:44:37;9.18;;;6.95;;
11338;SDS011;5724;42.684;23.252;2023-09-19T02:47:03;6.60;;;6.30;;
11338;SDS011;5724;42.684;23.252;2023-09-19T02:49:29;7.50;;;6.55;;
11338;SDS011;5724;42.684;23.252;2023-09-19T02:51:54;7.13;;;6.72;;
11338;SDS011;5724;42.684;23.252;2023-09-19T02:54:20;7.28;;;6.82;;
11338;SDS011;5724;42.684;23.252;2023-09-19T02:56:46;6.88;;;6.38;;
11338;SDS011;5724;42.684;23.252;2023-09-19T02:59:12;6.97;;;6.32;;
11338;SDS011;5724;42.684;23.252;2023-09-19T03:01:38;7.50;;;6.90;;
11338;SDS011;5724;42.684;23.252;2023-09-19T03:04:04;7.10;;;6.70;;
11338;SDS011;5724;42.684;23.252;2023-09-19T03:06:31;7.10;;;6.40;;
11338;SDS011;5724;42.684;23.252;2023-09-19T03:08:56;7.28;;;6.80;;
11338;SDS011;5724;42.684;23.252;2023-09-19T03:11:24;7.55;;;6.82;;
11338;SDS011;5724;42.684;23.252;2023-09-19T03:13:53;7.45;;;6.85;;
11338;SDS011;5724;42.684;23.252;2023-09-19T03:16:19;8.10;;;7.35;;
11338;SDS011;5724;42.684;23.252;2023-09-19T03:18:47;7.47;;;6.72;;
11338;SDS011;5724;42.684;23.252;2023-09-19T03:21:14;7.32;;;6.82;;
11338;SDS011;5724;42.684;23.252;2023-09-19T03:23:40;7.50;;;6.90;;
11338;SDS011;5724;42.684;23.252;2023-09-19T03:26:06;7.82;;;7.05;;
11338;SDS011;5724;42.684;23.252;2023-09-19T03:28:33;7.55;;;6.95;;
11338;SDS011;5724;42.684;23.252;2023-09-19T03:31:03;7.65;;;7.00;;
11338;SDS011;5724;42.684;23.252;2023-09-19T03:33:30;7.28;;;6.78;;
11338;SDS011;5724;42.684;23.252;2023-09-19T03:35:57;8.10;;;7.43;;
11338;SDS011;5724;42.684;23.252;2023-09-19T03:38:24;7.95;;;7.25;;
11338;SDS011;5724;42.684;23.252;2023-09-19T03:40:56;7.75;;;7.15;;
11338;SDS011;5724;42.684;23.252;2023-09-19T03:43:22;7.72;;;7.07;;
11338;SDS011;5724;42.684;23.252;2023-09-19T03:45:47;7.90;;;7.20;;
11338;SDS011;5724;42.684;23.252;2023-09-19T03:48:13;10.23;;;7.55;;
11338;SDS011;5724;42.684;23.252;2023-09-19T03:50:39;7.45;;;6.82;;
11338;SDS011;5724;42.684;23.252;2023-09-19T03:53:04;9.40;;;7.15;;
11338;SDS011;5724;42.684;23.252;2023-09-19T03:55:32;8.60;;;7.80;;
11338;SDS011;5724;42.684;23.252;2023-09-19T03:57:58;9.00;;;7.47;;
11338;SDS011;5724;42.684;23.252;2023-09-19T04:00:23;7.95;;;7.25;;
11338;SDS011;5724;42.684;23.252;2023-09-19T04:02:51;8.52;;;7.78;;
11338;SDS011;5724;42.684;23.252;2023-09-19T04:05:17;8.52;;;7.72;;
11338;SDS011;5724;42.684;23.252;2023-09-19T04:07:43;7.95;;;7.47;;
11338;SDS011;5724;42.684;23.252;2023-09-19T04:10:09;11.15;;;7.63;;
11338;SDS011;5724;42.684;23.252;2023-09-19T04:12:36;7.65;;;7.15;;
11338;SDS011;5724;42.684;23.252;2023-09-19T04:15:03;10.27;;;7.68;;
11338;SDS011;5724;42.684;23.252;2023-09-19T04:17:32;7.72;;;7.10;;
11338;SDS011;5724;42.684;23.252;2023-09-19T04:20:01;8.50;;;7.78;;
11338;SDS011;5724;42.684;23.252;2023-09-19T04:22:26;9.77;;;8.98;;
11338;SDS011;5724;42.684;23.252;2023-09-19T04:24:52;11.13;;;10.02;;
11338;SDS011;5724;42.684;23.252;2023-09-19T04:27:17;8.82;;;7.95;;
11338;SDS011;5724;42.684;23.252;2023-09-19T04:29:44;9.27;;;8.38;;
11338;SDS011;5724;42.684;23.252;2023-09-19T04:32:09;8.52;;;7.82;;
11338;SDS011;5724;42.684;23.252;2023-09-19T04:34:35;11.38;;;10.23;;
11338;SDS011;5724;42.684;23.252;2023-09-19T04:37:01;11.50;;;8.25;;
11338;SDS011;5724;42.684;23.252;2023-09-19T04:39:27;9.10;;;8.30;;
11338;SDS011;5724;42.684;23.252;2023-09-19T04:41:53;9.82;;;8.82;;
11338;SDS011;5724;42.684;23.252;2023-09-19T04:44:19;10.82;;;8.40;;
11338;SDS011;5724;42.684;23.252;2023-09-19T04:46:45;10.20;;;8.20;;
11338;SDS011;5724;42.684;23.252;2023-09-19T04:49:11;11.43;;;8.00;;
11338;SDS011;5724;42.684;23.252;2023-09-19T04:51:37;8.73;;;7.95;;
11338;SDS011;5724;42.684;23.252;2023-09-19T04:54:03;9.52;;;7.97;;
11338;SDS011;5724;42.684;23.252;2023-09-19T04:56:29;9.77;;;8.30;;
11338;SDS011;5724;42.684;23.252;2023-09-19T04:58:55;14.00;;;8.30;;
11338;SDS011;5724;42.684;23.252;2023-09-19T05:01:20;9.52;;;8.50;;
11338;SDS011;5724;42.684;23.252;2023-09-19T05:03:48;10.23;;;7.88;;
11338;SDS011;5724;42.684;23.252;2023-09-19T05:06:17;12.38;;;8.38;;
11338;SDS011;5724;42.684;23.252;2023-09-19T05:08:43;11.88;;;8.63;;
11338;SDS011;5724;42.684;23.252;2023-09-19T05:11:09;15.00;;;8.60;;
11338;SDS011;5724;42.684;23.252;2023-09-19T05:13:34;11.27;;;9.85;;
11338;SDS011;5724;42.684;23.252;2023-09-19T05:16:00;9.50;;;8.55;;
11338;SDS011;5724;42.684;23.252;2023-09-19T05:18:28;8.85;;;8.07;;
11338;SDS011;5724;42.684;23.252;2023-09-19T05:20:54;13.32;;;8.93;;
11338;SDS011;5724;42.684;23.252;2023-09-19T05:23:20;10.00;;;9.02;;
11338;SDS011;5724;42.684;23.252;2023-09-19T05:25:46;10.32;;;7.90;;
11338;SDS011;5724;42.684;23.252;2023-09-19T05:28:11;9.25;;;8.35;;
11338;SDS011;5724;42.684;23.252;2023-09-19T05:30:40;13.30;;;8.23;;
11338;SDS011;5724;42.684;23.252;2023-09-19T05:33:08;9.90;;;8.07;;
11338;SDS011;5724;42.684;23.252;2023-09-19T05:35:34;10.13;;;8.80;;
11338;SDS011;5724;42.684;23.252;2023-09-19T05:38:02;9.75;;;8.80;;
11338;SDS011;5724;42.684;23.252;2023-09-19T05:40:30;9.85;;;8.88;;
11338;SDS011;5724;42.684;23.252;2023-09-19T05:42:56;9.30;;;8.50;;
11338;SDS011;5724;42.684;23.252;2023-09-19T05:45:21;10.10;;;8.68;;
11338;SDS011;5724;42.684;23.252;2023-09-19T05:47:50;9.85;;;8.85;;
11338;SDS011;5724;42.684;23.252;2023-09-19T05:50:16;9.75;;;8.88;;
11338;SDS011;5724;42.684;23.252;2023-09-19T05:52:42;10.20;;;9.23;;
11338;SDS011;5724;42.684;23.252;2023-09-19T05:55:11;9.77;;;8.77;;
11338;SDS011;5724;42.684;23.252;2023-09-19T05:57:36;15.85;;;9.50;;
11338;SDS011;5724;42.684;23.252;2023-09-19T06:00:07;10.40;;;9.40;;
11338;SDS011;5724;42.684;23.252;2023-09-19T06:02:38;10.18;;;8.70;;
11338;SDS011;5724;42.684;23.252;2023-09-19T06:05:06;10.05;;;9.05;;
11338;SDS011;5724;42.684;23.252;2023-09-19T06:07:35;9.57;;;8.73;;
11338;SDS011;5724;42.684;23.252;2023-09-19T06:10:05;13.05;;;9.20;;
11338;SDS011;5724;42.684;23.252;2023-09-19T06:12:32;10.25;;;9.15;;
11338;SDS011;5724;42.684;23.252;2023-09-19T06:15:00;10.60;;;9.32;;
11338;SDS011;5724;42.684;23.252;2023-09-19T06:17:25;10.57;;;8.65;;
11338;SDS011;5724;42.684;23.252;2023-09-19T06:19:52;9.30;;;8.45;;
11338;SDS011;5724;42.684;23.252;2023-09-19T06:22:18;9.30;;;8.50;;
11338;SDS011;5724;42.684;23.252;2023-09-19T06:24:44;9.38;;;8.50;;
11338;SDS011;5724;42.684;23.252;2023-09-19T06:27:12;9.48;;;8.52;;
11338;SDS011;5724;42.684;23.252;2023-09-19T06:29:38;10.40;;;8.05;;
11338;SDS011;5724;42.684;23.252;2023-09-19T06:32:10;9.75;;;8.95;;
11338;SDS011;5724;42.684;23.252;2023-09-19T06:34:36;8.40;;;7.60;;
11338;SDS011;5724;42.684;23.252;2023-09-19T06:37:03;10.15;;;9.32;;
11338;SDS011;5724;42.684;23.252;2023-09-19T06:39:31;11.50;;;9.88;;
11338;SDS011;5724;42.684;23.252;2023-09-19T06:41:56;10.38;;;9.45;;
11338;SDS011;5724;42.684;23.252;2023-09-19T06:44:22;9.88;;;9.05;;
11338;SDS011;5724;42.684;23.252;2023-09-19T06:46:49;9.77;;;8.80;;
11338;SDS011;5724;42.684;23.252;2023-09-19T06:49:16;10.82;;;8.25;;
11338;SDS011;5724;42.684;23.252;2023-09-19T06:51:42;9.48;;;8.45;;
11338;SDS011;5724;42.684;23.252;2023-09-19T06:54:08;8.65;;;7.88;;
11338;SDS011;5724;42.684;23.252;2023-09-19T06:56:34;8.57;;;7.10;;
11338;SDS011;5724;42.684;23.252;2023-09-19T06:59:00;8.80;;;8.10;;
11338;SDS011;5724;42.684;23.252;2023-09-19T07:01:27;8.95;;;8.07;;
11338;SDS011;5724;42.684;23.252;2023-09-19T07:03:53;13.40;;;8.63;;
11338;SDS011;5724;42.684;23.252;2023-09-19T07:06:18;8.90;;;8.00;;
11338;SDS011;5724;42.684;23.252;2023-09-19T07:08:44;11.07;;;8.25;;
11338;SDS011;5724;42.684;23.252;2023-09-19T07:11:10;10.15;;;8.60;;
11338;SDS011;5724;42.684;23.252;2023-09-19T07:13:37;9.02;;;8.40;;
11338;SDS011;5724;42.684;23.252;2023-09-19T07:16:03;9.52;;;8.07;;
11338;SDS011;5724;42.684;23.252;2023-09-19T07:18:29;9.13;;;7.68;;
11338;SDS011;5724;42.684;23.252;2023-09-19T07:20:57;12.88;;;8.93;;
11338;SDS011;5724;42.684;23.252;2023-09-19T07:23:30;14.63;;;8.93;;
11338;SDS011;5724;42.684;23.252;2023-09-19T07:25:59;8.93;;;8.13;;
11338;SDS011;5724;42.684;23.252;2023-09-19T07:28:30;13.48;;;7.80;;
11338;SDS011;5724;42.684;23.252;2023-09-19T07:30:56;13.73;;;7.47;;
11338;SDS011;5724;42.684;23.252;2023-09-19T07:33:21;10.23;;;7.53;;
11338;SDS011;5724;42.684;23.252;2023-09-19T07:35:47;10.25;;;7.47;;
11338;SDS011;5724;42.684;23.252;2023-09-19T07:38:13;7.88;;;7.18;;
11338;SDS011;5724;42.684;23.252;2023-09-19T07:40:39;8.85;;;7.70;;
11338;SDS011;5724;42.684;23.252;2023-09-19T07:43:04;8.65;;;7.78;;
11338;SDS011;5724;42.684;23.252;2023-09-19T07:45:33;9.48;;;7.43;;
11338;SDS011;5724;42.684;23.252;2023-09-19T07:47:58;10.57;;;7.78;;
11338;SDS011;5724;42.684;23.252;2023-09-19T07:50:26;8.20;;;7.40;;
11338;SDS011;5724;42.684;23.252;2023-09-19T07:52:52;9.65;;;7.38;;
11338;SDS011;5724;42.684;23.252;2023-09-19T07:55:17;7.10;;;6.50;;
11338;SDS011;5724;42.684;23.252;2023-09-19T07:57:44;7.93;;;7.22;;
11338;SDS011;5724;42.684;23.252;2023-09-19T08:00:11;7.60;;;6.95;;
11338;SDS011;5724;42.684;23.252;2023-09-19T08:02:38;12.68;;;7.20;;
11338;SDS011;5724;42.684;23.252;2023-09-19T08:05:05;9.43;;;7.40;;
11338;SDS011;5724;42.684;23.252;2023-09-19T08:07:32;11.05;;;6.82;;
11338;SDS011;5724;42.684;23.252;2023-09-19T08:09:57;7.32;;;6.72;;
11338;SDS011;5724;42.684;23.252;2023-09-19T08:12:24;9.32;;;7.43;;
11338;SDS011;5724;42.684;23.252;2023-09-19T08:14:50;8.65;;;7.05;;
11338;SDS011;5724;42.684;23.252;2023-09-19T08:17:15;10.40;;;7.07;;
11338;SDS011;5724;42.684;23.252;2023-09-19T08:19:41;7.00;;;6.50;;
11338;SDS011;5724;42.684;23.252;2023-09-19T08:22:10;8.95;;;6.68;;
11338;SDS011;5724;42.684;23.252;2023-09-19T08:24:36;7.40;;;6.80;;
11338;SDS011;5724;42.684;23.252;2023-09-19T08:27:03;9.73;;;7.78;;
11338;SDS011;5724;42.684;23.252;2023-09-19T08:29:30;10.90;;;8.80;;
11338;SDS011;5724;42.684;23.252;2023-09-19T08:31:56;11.18;;;10.23;;
11338;SDS011;5724;42.684;23.252;2023-09-19T08:34:23;11.15;;;10.15;;
11338;SDS011;5724;42.684;23.252;2023-09-19T08:36:52;10.13;;;9.13;;
11338;SDS011;5724;42.684;23.252;2023-09-19T08:39:21;10.43;;;8.38;;
11338;SDS011;5724;42.684;23.252;2023-09-19T08:41:47;8.27;;;7.53;;
11338;SDS011;5724;42.684;23.252;2023-09-19T08:44:13;13.35;;;9.38;;
11338;SDS011;5724;42.684;23.252;2023-09-19T08:46:41;10.98;;;8.15;;
11338;SDS011;5724;42.684;23.252;2023-09-19T08:51:47;9.13;;;8.38;;
11338;SDS011;5724;42.684;23.252;2023-09-19T08:54:22;13.52;;;9.80;;
11338;SDS011;5724;42.684;23.252;2023-09-19T08:56:54;14.32;;;9.05;;
11338;SDS011;5724;42.684;23.252;2023-09-19T08:59:22;9.68;;;8.32;;
11338;SDS011;5724;42.684;23.252;2023-09-19T09:01:52;9.98;;;9.23;;
11338;SDS011;5724;42.684;23.252;2023-09-19T09:04:20;9.45;;;8.05;;
11338;SDS011;5724;42.684;23.252;2023-09-19T09:06:47;11.45;;;7.53;;
11338;SDS011;5724;42.684;23.252;2023-09-19T09:09:18;9.73;;;6.03;;
11338;SDS011;5724;42.684;23.252;2023-09-19T09:11:44;9.15;;;7.13;;
11338;SDS011;5724;42.684;23.252;2023-09-19T09:14:11;8.68;;;6.85;;
11338;SDS011;5724;42.684;23.252;2023-09-19T09:16:38;8.48;;;7.43;;
11338;SDS011;5724;42.684;23.252;2023-09-19T09:19:05;9.68;;;8.90;;
11338;SDS011;5724;42.684;23.252;2023-09-19T09:21:31;9.20;;;6.93;;
11338;SDS011;5724;42.684;23.252;2023-09-19T09:24:25;9.00;;;7.70;;
11338;SDS011;5724;42.684;23.252;2023-09-19T09:26:58;10.30;;;7.80;;
11338;SDS011;5724;42.684;23.252;2023-09-19T09:30:07;7.50;;;6.72;;
11338;SDS011;5724;42.684;23.252;2023-09-19T09:35:07;7.78;;;6.57;;
11338;SDS011;5724;42.684;23.252;2023-09-19T09:37:35;8.95;;;6.20;;
11338;SDS011;5724;42.684;23.252;2023-09-19T09:40:04;7.20;;;6.53;;
11338;SDS011;5724;42.684;23.252;2023-09-19T09:42:39;6.63;;;5.90;;
11338;SDS011;5724;42.684;23.252;2023-09-19T09:45:18;6.97;;;6.47;;
11338;SDS011;5724;42.684;23.252;2023-09-19T09:48:16;6.50;;;6.00;;
11338;SDS011;5724;42.684;23.252;2023-09-19T09:50:56;7.40;;;6.70;;
11338;SDS011;5724;42.684;23.252;2023-09-19T09:53:27;6.45;;;5.43;;
11338;SDS011;5724;42.684;23.252;2023-09-19T09:56:04;5.85;;;5.38;;
11338;SDS011;5724;42.684;23.252;2023-09-19T09:58:32;7.07;;;6.22;;
11338;SDS011;5724;42.684;23.252;2023-09-19T10:00:59;7.30;;;6.43;;
11338;SDS011;5724;42.684;23.252;2023-09-19T10:03:32;6.72;;;6.03;;
11338;SDS011;5724;42.684;23.252;2023-09-19T10:06:04;8.75;;;7.10;;
11338;SDS011;5724;42.684;23.252;2023-09-19T10:09:05;8.10;;;6.25;;
11338;SDS011;5724;42.684;23.252;2023-09-19T10:11:48;7.95;;;6.90;;
11338;SDS011;5724;42.684;23.252;2023-09-19T10:14:29;9.95;;;6.43;;
11338;SDS011;5724;42.684;23.252;2023-09-19T10:16:59;6.72;;;6.20;;
11338;SDS011;5724;42.684;23.252;2023-09-19T10:19:30;6.90;;;6.30;;
11338;SDS011;5724;42.684;23.252;2023-09-19T10:22:01;7.53;;;6.90;;
11338;SDS011;5724;42.684;23.252;2023-09-19T10:24:29;7.57;;;6.80;;
11338;SDS011;5724;42.684;23.252;2023-09-19T10:26:56;7.32;;;6.63;;
11338;SDS011;5724;42.684;23.252;2023-09-19T10:29:23;7.72;;;6.90;;
11338;SDS011;5724;42.684;23.252;2023-09-19T10:31:55;7.25;;;6.65;;
11338;SDS011;5724;42.684;23.252;2023-09-19T10:34:23;7.05;;;6.10;;
11338;SDS011;5724;42.684;23.252;2023-09-19T10:36:50;6.78;;;5.95;;
11338;SDS011;5724;42.684;23.252;2023-09-19T10:39:17;6.97;;;5.80;;
11338;SDS011;5724;42.684;23.252;2023-09-19T10:41:45;8.00;;;6.00;;
11338;SDS011;5724;42.684;23.252;2023-09-19T10:44:19;6.57;;;6.07;;
11338;SDS011;5724;42.684;23.252;2023-09-19T10:46:48;7.22;;;5.82;;
11338;SDS011;5724;42.684;23.252;2023-09-19T10:49:14;6.38;;;5.78;;
11338;SDS011;5724;42.684;23.252;2023-09-19T10:51:41;9.52;;;5.75;;
11338;SDS011;5724;42.684;23.252;2023-09-19T10:54:10;6.50;;;6.00;;
11338;SDS011;5724;42.684;23.252;2023-09-19T10:56:40;6.28;;;5.78;;
11338;SDS011;5724;42.684;23.252;2023-09-19T11:01:48;5.90;;;5.35;;
11338;SDS011;5724;42.684;23.252;2023-09-19T11:04:33;9.25;;;6.22;;
11338;SDS011;5724;42.684;23.252;2023-09-19T11:07:04;10.32;;;7.43;;
11338;SDS011;5724;42.684;23.252;2023-09-19T11:15:00;6.00;;;5.50;;
11338;SDS011;5724;42.684;23.252;2023-09-19T11:30:35;8.55;;;5.75;;
11338;SDS011;5724;42.684;23.252;2023-09-19T11:36:05;6.28;;;5.65;;
11338;SDS011;5724;42.684;23.252;2023-09-19T11:46:16;6.60;;;5.70;;
11338;SDS011;5724;42.684;23.252;2023-09-19T11:48:47;6.38;;;5.68;;
11338;SDS011;5724;42.684;23.252;2023-09-19T11:51:15;7.72;;;5.85;;
11338;SDS011;5724;42.684;23.252;2023-09-19T11:53:54;8.75;;;5.82;;
11338;SDS011;5724;42.684;23.252;2023-09-19T11:56:22;5.88;;;5.40;;
11338;SDS011;5724;42.684;23.252;2023-09-19T11:58:50;6.18;;;5.47;;
11338;SDS011;5724;42.684;23.252;2023-09-19T12:01:43;6.78;;;5.72;;
11338;SDS011;5724;42.684;23.252;2023-09-19T12:04:15;6.95;;;5.90;;
11338;SDS011;5724;42.684;23.252;2023-09-19T12:06:43;6.45;;;5.80;;
11338;SDS011;5724;42.684;23.252;2023-09-19T12:09:21;6.55;;;5.85;;
11338;SDS011;5724;42.684;23.252;2023-09-19T12:11:47;5.80;;;5.40;;
11338;SDS011;5724;42.684;23.252;2023-09-19T12:14:24;5.28;;;4.93;;
11338;SDS011;5724;42.684;23.252;2023-09-19T12:16:54;6.88;;;5.50;;
11338;SDS011;5724;42.684;23.252;2023-09-19T12:19:21;6.97;;;5.90;;
11338;SDS011;5724;42.684;23.252;2023-09-19T12:21:54;8.40;;;5.30;;
11338;SDS011;5724;42.684;23.252;2023-09-19T12:24:23;9.65;;;5.80;;
11338;SDS011;5724;42.684;23.252;2023-09-19T12:26:54;8.70;;;5.70;;
11338;SDS011;5724;42.684;23.252;2023-09-19T12:29:27;9.40;;;5.65;;
11338;SDS011;5724;42.684;23.252;2023-09-19T12:31:55;6.30;;;5.57;;
11338;SDS011;5724;42.684;23.252;2023-09-19T12:34:28;6.13;;;5.40;;
11338;SDS011;5724;42.684;23.252;2023-09-19T12:39:40;6.10;;;5.57;;
11338;SDS011;5724;42.684;23.252;2023-09-19T12:42:24;5.90;;;5.40;;
11338;SDS011;5724;42.684;23.252;2023-09-19T12:44:57;6.78;;;5.85;;
11338;SDS011;5724;42.684;23.252;2023-09-19T12:47:26;6.60;;;5.60;;
11338;SDS011;5724;42.684;23.252;2023-09-19T12:50:16;6.03;;;5.45;;
11338;SDS011;5724;42.684;23.252;2023-09-19T12:52:50;6.35;;;5.85;;
11338;SDS011;5724;42.684;23.252;2023-09-19T12:55:28;5.80;;;5.30;;
11338;SDS011;5724;42.684;23.252;2023-09-19T13:00:43;6.53;;;5.90;;
11338;SDS011;5724;42.684;23.252;2023-09-19T13:08:17;6.70;;;5.63;;
11338;SDS011;5724;42.684;23.252;2023-09-19T13:11:01;9.45;;;5.60;;
11338;SDS011;5724;42.684;23.252;2023-09-19T13:13:48;6.43;;;5.45;;
11338;SDS011;5724;42.684;23.252;2023-09-19T13:16:19;5.55;;;5.07;;
11338;SDS011;5724;42.684;23.252;2023-09-19T13:18:49;5.93;;;5.38;;
11338;SDS011;5724;42.684;23.252;2023-09-19T13:21:30;5.35;;;4.95;;
11338;SDS011;5724;42.684;23.252;2023-09-19T13:24:20;5.30;;;4.78;;
11338;SDS011;5724;42.684;23.252;2023-09-19T13:26:48;6.13;;;5.60;;
11338;SDS011;5724;42.684;23.252;2023-09-19T13:29:14;5.97;;;5.55;;
11338;SDS011;5724;42.684;23.252;2023-09-19T13:31:46;5.47;;;5.07;;
11338;SDS011;5724;42.684;23.252;2023-09-19T13:34:13;5.70;;;5.40;;
11338;SDS011;5724;42.684;23.252;2023-09-19T13:36:40;5.28;;;4.88;;
11338;SDS011;5724;42.684;23.252;2023-09-19T13:39:07;5.68;;;5.28;;
11338;SDS011;5724;42.684;23.252;2023-09-19T13:41:34;5.60;;;5.13;;
11338;SDS011;5724;42.684;23.252;2023-09-19T13:44:02;5.40;;;4.90;;
11338;SDS011;5724;42.684;23.252;2023-09-19T13:46:33;5.40;;;4.97;;
11338;SDS011;5724;42.684;23.252;2023-09-19T13:49:01;5.30;;;4.80;;
11338;SDS011;5724;42.684;23.252;2023-09-19T13:51:28;6.53;;;5.18;;
11338;SDS011;5724;42.684;23.252;2023-09-19T13:53:55;6.82;;;5.07;;
11338;SDS011;5724;42.684;23.252;2023-09-19T13:56:21;5.43;;;4.90;;
11338;SDS011;5724;42.684;23.252;2023-09-19T13:58:46;7.70;;;5.50;;
11338;SDS011;5724;42.684;23.252;2023-09-19T14:01:12;5.82;;;5.40;;
11338;SDS011;5724;42.684;23.252;2023-09-19T14:03:41;5.18;;;4.90;;
11338;SDS011;5724;42.684;23.252;2023-09-19T14:06:18;5.25;;;4.90;;
11338;SDS011;5724;42.684;23.252;2023-09-19T14:08:43;5.65;;;5.10;;
11338;SDS011;5724;42.684;23.252;2023-09-19T14:11:13;5.53;;;4.93;;
11338;SDS011;5724;42.684;23.252;2023-09-19T14:13:42;5.22;;;4.75;;
11338;SDS011;5724;42.684;23.252;2023-09-19T14:16:13;5.22;;;4.72;;
11338;SDS011;5724;42.684;23.252;2023-09-19T14:18:39;5.32;;;4.75;;
11338;SDS011;5724;42.684;23.252;2023-09-19T14:21:05;5.68;;;5.18;;
11338;SDS011;5724;42.684;23.252;2023-09-19T14:23:36;4.88;;;4.47;;
11338;SDS011;5724;42.684;23.252;2023-09-19T14:26:03;8.35;;;4.95;;
11338;SDS011;5724;42.684;23.252;2023-09-19T14:28:30;5.53;;;5.03;;
11338;SDS011;5724;42.684;23.252;2023-09-19T14:30:56;6.03;;;5.15;;
11338;SDS011;5724;42.684;23.252;2023-09-19T14:33:21;5.22;;;4.70;;
11338;SDS011;5724;42.684;23.252;2023-09-19T14:35:47;5.00;;;4.60;;
11338;SDS011;5724;42.684;23.252;2023-09-19T14:38:13;6.18;;;4.40;;
11338;SDS011;5724;42.684;23.252;2023-09-19T14:40:39;9.40;;;4.85;;
11338;SDS011;5724;42.684;23.252;2023-09-19T14:43:05;5.72;;;4.90;;
11338;SDS011;5724;42.684;23.252;2023-09-19T14:45:35;5.68;;;5.05;;
11338;SDS011;5724;42.684;23.252;2023-09-19T14:48:01;5.65;;;5.15;;
11338;SDS011;5724;42.684;23.252;2023-09-19T14:50:30;5.85;;;5.20;;
11338;SDS011;5724;42.684;23.252;2023-09-19T14:52:56;5.35;;;4.70;;
11338;SDS011;5724;42.684;23.252;2023-09-19T14:55:21;5.40;;;5.00;;
11338;SDS011;5724;42.684;23.252;2023-09-19T14:57:51;5.50;;;5.03;;
11338;SDS011;5724;42.684;23.252;2023-09-19T15:00:17;5.72;;;5.32;;
11338;SDS011;5724;42.684;23.252;2023-09-19T15:02:45;6.60;;;5.35;;
11338;SDS011;5724;42.684;23.252;2023-09-19T15:05:13;7.18;;;6.55;;
11338;SDS011;5724;42.684;23.252;2023-09-19T15:07:40;7.20;;;6.60;;
11338;SDS011;5724;42.684;23.252;2023-09-19T15:10:06;7.43;;;6.72;;
11338;SDS011;5724;42.684;23.252;2023-09-19T15:12:35;11.63;;;7.30;;
11338;SDS011;5724;42.684;23.252;2023-09-19T15:15:03;7.65;;;6.82;;
11338;SDS011;5724;42.684;23.252;2023-09-19T15:17:35;9.45;;;7.22;;
11338;SDS011;5724;42.684;23.252;2023-09-19T15:20:01;6.28;;;5.68;;
11338;SDS011;5724;42.684;23.252;2023-09-19T15:22:28;10.95;;;8.18;;
11338;SDS011;5724;42.684;23.252;2023-09-19T15:24:53;15.20;;;11.25;;
11338;SDS011;5724;42.684;23.252;2023-09-19T15:27:20;13.30;;;9.90;;
11338;SDS011;5724;42.684;23.252;2023-09-19T15:29:46;14.32;;;8.82;;
11338;SDS011;5724;42.684;23.252;2023-09-19T15:32:11;10.98;;;9.98;;
11338;SDS011;5724;42.684;23.252;2023-09-19T15:34:37;12.00;;;10.00;;
11338;SDS011;5724;42.684;23.252;2023-09-19T15:37:02;12.63;;;10.35;;
11338;SDS011;5724;42.684;23.252;2023-09-19T15:39:31;11.45;;;10.55;;
11338;SDS011;5724;42.684;23.252;2023-09-19T15:41:59;13.07;;;11.25;;
11338;SDS011;5724;42.684;23.252;2023-09-19T15:44:24;13.45;;;11.60;;
11338;SDS011;5724;42.684;23.252;2023-09-19T15:46:53;16.30;;;11.70;;
11338;SDS011;5724;42.684;23.252;2023-09-19T15:49:18;10.48;;;9.40;;
11338;SDS011;5724;42.684;23.252;2023-09-19T15:51:44;10.55;;;9.60;;
11338;SDS011;5724;42.684;23.252;2023-09-19T15:54:13;10.65;;;9.30;;
11338;SDS011;5724;42.684;23.252;2023-09-19T15:56:40;9.40;;;8.50;;
11338;SDS011;5724;42.684;23.252;2023-09-19T15:59:09;10.05;;;9.07;;
11338;SDS011;5724;42.684;23.252;2023-09-19T16:01:37;10.02;;;8.65;;
11338;SDS011;5724;42.684;23.252;2023-09-19T16:04:03;11.65;;;8.48;;
11338;SDS011;5724;42.684;23.252;2023-09-19T16:06:29;9.50;;;8.80;;